Trimble, OH (45782)

12:58 PM EST on February 09, 2016 (GMT -0500)
kimberly ohio | | Change Station
CLOSE
Current Station
Personal Weather Station
Location: Nelsonville, OH
Elevation: 830 ft
Nearby Weather Stations

Elev 830 ft 39.41 °N, 82.23 °W | Updated 10 minutes ago

Snow
Snow
29.5 °F
Feels Like 30 °F
N
0.0
Wind Variable Wind from NNE

Today
High -- | Low -- °F
--% Chance of Precip.
Yesterday
High -- | Low -- °F
Precip. -- in
Pressure 29.72 in
Visibility 4.0 miles
Clouds Mostly Cloudy 1800 ft
Overcast 2300 ft
Windchill 30 °F
Dew Point 24 °F
Humidity 78%
Rainfall 0.00 in
Snow Depth Not available.
7:28 AM 5:57 PM
New Moon, 2% visible
METAR KUNI 091730Z AUTO 23009G16KT 4SM -SN BKN018 OVC023 M04/M06 A2972 RMK AO2 T10401065
Pressure 29.72 in
Visibility 4.0 miles
Clouds Mostly Cloudy 1800 ft
Overcast 2300 ft
Windchill 30 °F
Dew Point 24 °F
Humidity 78%
Rainfall 0.00 in
Snow Depth Not available.
7:28 AM 5:57 PM
New Moon, 2% visible
METAR KUNI 091730Z AUTO 23009G16KT 4SM -SN BKN018 OVC023 M04/M06 A2972 RMK AO2 T10401065

10-Day Weather Forecast

Almanac

Astronomy

Feb. 09, 2016 Rise Set
Actual Time
Civil Twilight
Nautical Twilight
Astronomical Twilight
Moon
Length of Visible Light
Length of Day
Tomorrow will be .
, % of the Moon is Illuminated

Today's Extremes

State Highs State Lows

Community

WunderPhotos

Upload Photos

1,891,650 photos uploaded!

WunderBlog® & News

Nearby

Air Quality

  Air Quality AQ Index Pollutant
Not available.

Snow Depth

Station Depth Elevation

Earthquake Activity

City Distance Mag. Time & Date
Minimum magnitude displayed is 2.5.

Coastal Water Temperatures

Place Temperature

Stations

Nearby Weather Stations

Station Location Temp. Windchill Dew Point Humidity Wind Precip. Elev Updated Type
                   

Watches & Warnings

Winter Storm Warning, Winter Weather Advisory
Issued: 11:37 AM EST Feb. 9, 2016 – National Weather Service

... Winter Storm Warning remains in effect until 6 PM EST this
evening...
... Winter Weather Advisory remains in effect from 6 PM this
evening to 7 am EST Wednesday...

* hazard types... snow showers of varying intensity.

* Total snow accumulations... 4 to 9 inches.

* Temperatures... falling into the upper teens late tonight.

* Impacts... travel will be difficult at times. Visibilities will
be limited at times.

Precautionary/preparedness actions...

A Winter Storm Warning for heavy snow means severe winter weather
conditions are expected or occurring. Significant amounts of
snow are forecast that will make travel dangerous. Only travel in
an emergency. If you must travel... keep an extra flashlight...
food... and water in your vehicle in case of an emergency.

A Winter Weather Advisory for snow means that periods of snow
will cause primarily travel difficulties. Be prepared for snow
covered roads and limited visibilities... and use caution while
driving.